Aviation Digital Data Service (ADDS)

Output produced by TAFs form (1615 UTC 01 October 2014)
found at http://www.aviationweather.gov/adds/tafs/
 
KMDT 011605Z 0116/0212 VRB03KT 4SM BR BKN015 
     FM011700 10005KT P6SM BKN025 
     FM011800 10004KT P6SM SCT025 BKN040 
     FM020000 10003KT P6SM SCT050 
     FM020600 VRB03KT 3SM BR OVC025